createdAt,value
2022-11-23T00:01:34.102Z,7.78
2022-11-23T00:04:07.059Z,7.93
2022-11-23T00:06:34.506Z,7.95
2022-11-23T00:09:01.430Z,8.13
2022-11-23T00:11:28.993Z,8.57
2022-11-23T00:13:56.292Z,8.43
2022-11-23T00:16:26.211Z,8.77
2022-11-23T00:18:56.722Z,8.48
2022-11-23T00:21:24.889Z,8.00
2022-11-23T00:23:51.737Z,8.35
2022-11-23T00:26:19.422Z,8.40
2022-11-23T00:31:15.485Z,8.82
2022-11-23T00:33:43.227Z,9.45
2022-11-23T00:38:42.599Z,9.02
2022-11-23T00:41:12.362Z,9.80
2022-11-23T00:43:39.069Z,9.52
2022-11-23T00:46:12.914Z,10.65
2022-11-23T00:48:39.678Z,10.07
2022-11-23T00:51:09.713Z,9.52
2022-11-23T00:53:37.986Z,8.77
2022-11-23T00:56:05.277Z,8.80
2022-11-23T00:58:34.811Z,9.68
2022-11-23T01:01:10.344Z,8.57
2022-11-23T01:03:42.939Z,10.00
2022-11-23T01:06:14.425Z,9.30
2022-11-23T01:08:41.539Z,9.05
2022-11-23T01:11:11.764Z,9.73
2022-11-23T01:13:41.511Z,9.63
2022-11-23T01:16:22.413Z,9.07
2022-11-23T01:19:13.793Z,9.07
2022-11-23T01:21:40.871Z,8.80
2022-11-23T01:24:12.114Z,9.20
2022-11-23T01:26:39.671Z,8.23
2022-11-23T01:29:06.938Z,9.73
2022-11-23T01:31:33.835Z,9.50
2022-11-23T01:34:02.123Z,10.05
2022-11-23T01:36:30.965Z,9.70
2022-11-23T01:38:59.800Z,9.00
2022-11-23T01:41:31.835Z,10.23
2022-11-23T01:43:58.740Z,9.18
2022-11-23T01:46:25.952Z,10.50
2022-11-23T01:49:03.770Z,10.10
2022-11-23T01:51:34.922Z,9.85
2022-11-23T01:54:07.887Z,9.38
2022-11-23T01:56:39.461Z,10.05
2022-11-23T01:59:12.284Z,9.80
2022-11-23T02:04:25.671Z,9.43
2022-11-23T02:06:53.404Z,10.13
2022-11-23T02:12:00.236Z,9.23
2022-11-23T02:14:30.211Z,10.10
2022-11-23T02:17:00.414Z,9.75
2022-11-23T02:19:48.204Z,10.45
2022-11-23T02:22:23.184Z,10.05
2022-11-23T02:24:56.307Z,9.75
2022-11-23T02:27:23.608Z,9.77
2022-11-23T02:29:52.825Z,9.38
2022-11-23T02:32:23.575Z,9.18
2022-11-23T02:34:55.298Z,8.93
2022-11-23T02:37:22.652Z,8.95
2022-11-23T02:39:55.180Z,8.95
2022-11-23T02:42:29.481Z,9.88
2022-11-23T02:45:25.056Z,9.52
2022-11-23T02:47:54.561Z,10.27
2022-11-23T02:50:23.883Z,9.80
2022-11-23T02:52:54.836Z,10.30
2022-11-23T02:55:22.405Z,10.02
2022-11-23T02:57:49.937Z,9.98
2022-11-23T03:46:10.379Z,10.82
2022-11-23T03:48:38.705Z,10.90
2022-11-23T03:51:05.532Z,10.63
2022-11-23T03:53:32.688Z,11.47
2022-11-23T03:55:59.382Z,9.77
2022-11-23T03:58:26.185Z,10.18
2022-11-23T04:00:52.906Z,11.73
2022-11-23T04:03:19.810Z,11.53
2022-11-23T04:05:46.629Z,10.77
2022-11-23T04:08:16.026Z,10.87
2022-11-23T04:10:42.795Z,9.68
2022-11-23T04:13:09.549Z,10.50
2022-11-23T04:15:36.466Z,9.63
2022-11-23T04:18:04.721Z,9.95
2022-11-23T04:20:31.403Z,9.57
2022-11-23T04:22:58.038Z,9.75
2022-11-23T04:25:24.759Z,8.90
2022-11-23T04:27:51.545Z,8.90
2022-11-23T04:30:18.396Z,9.85
2022-11-23T04:32:45.804Z,9.37
2022-11-23T04:35:12.881Z,9.02
2022-11-23T04:37:40.738Z,9.05
2022-11-23T04:40:08.272Z,9.13
2022-11-23T04:42:35.177Z,8.75
2022-11-23T04:45:02.017Z,8.63
2022-11-23T04:47:28.666Z,8.97
2022-11-23T04:49:55.387Z,8.55
2022-11-23T04:52:22.258Z,8.05
2022-11-23T04:54:48.949Z,8.43
2022-11-23T04:57:15.712Z,9.43
2022-11-23T04:59:42.497Z,9.83
2022-11-23T05:02:10.221Z,13.57
2022-11-23T05:07:04.909Z,8.93
2022-11-23T05:09:32.736Z,8.82
2022-11-23T05:11:59.773Z,9.30
2022-11-23T05:14:26.453Z,8.87
2022-11-23T05:19:35.527Z,9.85
2022-11-23T05:22:04.592Z,9.73
2022-11-23T05:24:33.639Z,8.95
2022-11-23T05:27:00.673Z,10.43
2022-11-23T05:29:27.575Z,9.63
2022-11-23T05:31:55.360Z,9.47
2022-11-23T05:34:26.468Z,9.85
2022-11-23T05:39:36.702Z,9.88
2022-11-23T05:42:03.523Z,10.77
2022-11-23T05:47:12.611Z,9.27
2022-11-23T05:49:39.351Z,9.20
2022-11-23T05:52:06.255Z,9.10
2022-11-23T05:54:33.090Z,9.35
2022-11-23T05:56:59.992Z,10.57
2022-11-23T05:59:26.730Z,9.77
2022-11-23T06:01:53.751Z,8.90
2022-11-23T06:04:20.577Z,8.85
2022-11-23T06:06:47.367Z,9.03
2022-11-23T06:09:14.046Z,7.90
2022-11-23T06:11:40.854Z,8.50
2022-11-23T06:14:11.393Z,7.93
2022-11-23T06:16:41.017Z,8.43
2022-11-23T06:19:07.794Z,8.00
2022-11-23T06:21:34.567Z,8.23
2022-11-23T06:24:01.299Z,7.87
2022-11-23T06:26:28.097Z,7.93
2022-11-23T06:28:57.768Z,7.60
2022-11-23T06:31:24.506Z,8.25
2022-11-23T06:33:52.883Z,7.15
2022-11-23T06:36:20.089Z,7.80
2022-11-23T06:38:47.125Z,8.15
2022-11-23T06:41:13.975Z,7.45
2022-11-23T06:43:42.124Z,8.02
2022-11-23T06:46:10.226Z,8.75
2022-11-23T06:48:36.957Z,8.95
2022-11-23T06:51:03.821Z,8.38
2022-11-23T06:53:31.065Z,8.82
2022-11-23T06:56:01.043Z,7.55
2022-11-23T06:58:28.928Z,8.93
2022-11-23T07:01:00.862Z,8.40
2022-11-23T07:03:29.964Z,7.72
2022-11-23T07:05:56.958Z,10.02
2022-11-23T07:08:23.936Z,9.57
2022-11-23T07:10:50.801Z,9.65
2022-11-23T07:13:17.482Z,10.18
2022-11-23T07:15:44.213Z,10.98
2022-11-23T07:18:12.464Z,10.18
2022-11-23T07:20:39.505Z,9.15
2022-11-23T07:23:08.878Z,8.95
2022-11-23T07:25:37.512Z,7.93
2022-11-23T07:28:06.876Z,8.30
2022-11-23T07:30:34.966Z,5.82
2022-11-23T07:33:03.986Z,7.05
2022-11-23T07:35:32.694Z,6.95
2022-11-23T07:38:00.253Z,7.78
2022-11-23T07:40:27.217Z,9.48
2022-11-23T07:42:58.972Z,10.15
2022-11-23T07:45:25.742Z,12.38
2022-11-23T07:48:06.414Z,12.27
2022-11-23T07:50:34.750Z,14.30
2022-11-23T07:53:06.289Z,12.60
2022-11-23T07:55:33.842Z,14.88
2022-11-23T07:58:00.712Z,16.45
2022-11-23T08:03:26.543Z,12.60
2022-11-23T08:08:20.253Z,13.15
2022-11-23T08:11:09.168Z,9.52
2022-11-23T08:13:37.383Z,9.57
2022-11-23T08:16:07.999Z,8.32
2022-11-23T08:18:35.983Z,7.40
2022-11-23T08:21:05.429Z,5.90
2022-11-23T08:23:41.725Z,6.35
2022-11-23T08:28:43.876Z,6.03
2022-11-23T08:31:11.429Z,5.27
2022-11-23T08:33:39.534Z,5.13
2022-11-23T08:36:09.041Z,5.65
2022-11-23T08:38:36.412Z,5.82
2022-11-23T08:41:05.571Z,5.70
2022-11-23T08:43:32.700Z,4.70
2022-11-23T08:46:06.895Z,5.25
2022-11-23T08:48:43.518Z,6.05
2022-11-23T08:51:10.391Z,5.78
2022-11-23T08:53:45.865Z,5.53
2022-11-23T09:01:34.086Z,4.38
2022-11-23T09:04:17.789Z,5.38
2022-11-23T09:06:51.384Z,5.80
2022-11-23T09:09:20.539Z,5.20
2022-11-23T09:11:49.712Z,4.95
2022-11-23T09:14:17.220Z,4.20
2022-11-23T09:16:44.963Z,4.07
2022-11-23T09:19:14.212Z,3.72
2022-11-23T09:21:43.881Z,3.85
2022-11-23T09:24:12.332Z,3.60
2022-11-23T09:26:42.286Z,2.80
2022-11-23T09:29:10.366Z,2.85
2022-11-23T09:31:38.519Z,2.55
2022-11-23T09:34:05.628Z,2.70
2022-11-23T09:36:32.704Z,2.60
2022-11-23T09:38:59.579Z,2.08
2022-11-23T09:41:51.850Z,2.53
2022-11-23T09:44:43.697Z,1.90
2022-11-23T09:47:31.712Z,1.80
2022-11-23T09:50:35.028Z,1.60
2022-11-23T09:53:08.109Z,1.85
2022-11-23T09:55:43.739Z,1.67
2022-11-23T09:58:17.283Z,2.00
2022-11-23T10:00:48.731Z,3.33
2022-11-23T10:03:18.429Z,2.30
2022-11-23T10:05:58.445Z,2.67
2022-11-23T10:08:39.449Z,4.13
2022-11-23T10:11:41.002Z,1.40
2022-11-23T10:20:03.358Z,1.10
2022-11-23T10:22:50.810Z,1.08
2022-11-23T10:25:20.378Z,1.20
2022-11-23T10:27:50.589Z,1.45
2022-11-23T10:30:19.360Z,2.10
2022-11-23T10:33:07.779Z,2.28
2022-11-23T10:35:35.379Z,2.00
2022-11-23T10:38:19.833Z,1.75
2022-11-23T10:41:07.310Z,1.70
2022-11-23T10:43:56.609Z,1.40
2022-11-23T10:46:39.982Z,1.70
2022-11-23T10:49:13.268Z,2.20
2022-11-23T10:51:40.012Z,1.80
2022-11-23T10:54:21.229Z,1.27
2022-11-23T10:56:50.359Z,1.52
2022-11-23T11:00:07.252Z,1.23
2022-11-23T11:02:47.088Z,1.17
2022-11-23T11:06:07.522Z,1.10
2022-11-23T11:11:07.258Z,1.40
2022-11-23T11:13:48.507Z,1.42
2022-11-23T11:16:35.370Z,1.20
2022-11-23T11:19:21.148Z,1.33
2022-11-23T11:21:48.119Z,1.73
2022-11-23T11:24:20.104Z,1.05
2022-11-23T11:27:02.448Z,1.35
2022-11-23T11:29:45.485Z,1.23
2022-11-23T11:32:33.748Z,1.20
2022-11-23T11:35:31.459Z,1.40
2022-11-23T11:38:12.615Z,1.52
2022-11-23T11:40:48.199Z,1.00
2022-11-23T11:43:42.052Z,1.10
2022-11-23T11:46:31.136Z,1.10
2022-11-23T11:51:52.607Z,1.10
2022-11-23T11:54:52.195Z,1.02
2022-11-23T12:00:01.667Z,0.95
2022-11-23T12:02:55.625Z,1.30
2022-11-23T12:05:36.505Z,1.30
2022-11-23T12:08:22.998Z,1.30
2022-11-23T12:11:02.125Z,1.00
2022-11-23T12:13:38.575Z,1.48
2022-11-23T12:17:10.199Z,1.10
2022-11-23T12:19:38.766Z,1.05
2022-11-23T12:22:26.853Z,1.45
2022-11-23T12:25:03.387Z,0.93
2022-11-23T12:27:55.217Z,2.85
2022-11-23T12:30:52.972Z,1.40
2022-11-23T12:33:56.966Z,1.10
2022-11-23T12:36:32.405Z,1.10
2022-11-23T12:39:16.396Z,1.15
2022-11-23T12:41:57.134Z,1.30
2022-11-23T12:45:09.583Z,0.90
2022-11-23T12:47:45.922Z,1.00
2022-11-23T12:50:18.584Z,1.20
2022-11-23T12:53:16.965Z,1.00
2022-11-23T12:55:51.613Z,1.23
2022-11-23T12:58:30.716Z,1.20
2022-11-23T13:01:05.721Z,1.10
2022-11-23T13:03:38.552Z,0.95
2022-11-23T13:06:18.295Z,0.98
2022-11-23T13:09:00.122Z,0.80
2022-11-23T13:11:55.735Z,1.15
2022-11-23T13:14:44.570Z,1.30
2022-11-23T13:17:43.074Z,1.35
2022-11-23T13:20:38.459Z,1.35
2022-11-23T13:23:06.841Z,1.00
2022-11-23T13:25:34.436Z,0.93
2022-11-23T13:33:37.951Z,1.17
2022-11-23T13:36:11.224Z,1.95
2022-11-23T13:38:45.724Z,1.10
2022-11-23T13:41:33.896Z,1.23
2022-11-23T13:44:21.669Z,1.33
2022-11-23T13:47:14.460Z,0.95
2022-11-23T13:50:05.077Z,1.38
2022-11-23T13:52:33.022Z,1.02
2022-11-23T13:55:12.143Z,1.13
2022-11-23T13:57:43.454Z,1.20
2022-11-23T14:00:51.066Z,1.42
2022-11-23T14:03:43.014Z,1.10
2022-11-23T14:06:44.581Z,1.65
2022-11-23T14:09:33.151Z,0.90
2022-11-23T14:12:12.766Z,1.10
2022-11-23T14:15:01.038Z,1.42
2022-11-23T14:17:27.661Z,1.20
2022-11-23T14:20:26.070Z,1.27
2022-11-23T14:23:08.066Z,1.25
2022-11-23T14:25:51.322Z,1.00
2022-11-23T14:28:56.733Z,1.20
2022-11-23T14:31:48.379Z,1.20
2022-11-23T14:34:25.362Z,1.27
2022-11-23T14:37:13.592Z,1.95
2022-11-23T14:39:54.218Z,1.83
2022-11-23T14:42:27.259Z,2.42
2022-11-23T14:44:55.857Z,1.83
2022-11-23T14:47:28.705Z,1.88
2022-11-23T14:49:56.276Z,2.50
2022-11-23T14:52:27.679Z,2.28
2022-11-23T14:54:57.318Z,2.53
2022-11-23T14:57:29.588Z,2.63
2022-11-23T15:00:00.912Z,2.05
2022-11-23T15:02:37.460Z,3.45
2022-11-23T15:05:24.891Z,2.83
2022-11-23T15:08:19.133Z,2.70
2022-11-23T15:11:09.846Z,2.50
2022-11-23T15:14:16.272Z,2.33
2022-11-23T15:16:43.039Z,3.22
2022-11-23T15:19:29.766Z,3.70
2022-11-23T15:21:57.467Z,3.45
2022-11-23T15:26:53.384Z,4.43
2022-11-23T15:29:36.022Z,4.68
2022-11-23T15:32:29.241Z,4.40
2022-11-23T15:34:55.617Z,4.90
2022-11-23T15:37:23.975Z,4.78
2022-11-23T15:39:58.313Z,5.28
2022-11-23T15:42:27.421Z,5.55
2022-11-23T15:44:54.747Z,5.95
2022-11-23T15:47:29.148Z,12.25
2022-11-23T15:50:08.233Z,8.98
2022-11-23T15:52:39.710Z,7.53
2022-11-23T15:55:09.999Z,7.05
2022-11-23T15:57:43.213Z,6.55
2022-11-23T16:00:25.719Z,5.30
2022-11-23T16:03:14.500Z,5.75
2022-11-23T16:05:42.441Z,6.13
2022-11-23T16:08:27.148Z,8.05
2022-11-23T16:10:54.986Z,7.50
2022-11-23T16:13:36.454Z,7.07
2022-11-23T16:16:07.540Z,6.13
2022-11-23T16:18:36.380Z,6.65
2022-11-23T16:21:06.387Z,6.57
2022-11-23T16:23:54.509Z,6.07
2022-11-23T16:26:29.797Z,6.70
2022-11-23T16:28:58.860Z,6.95
2022-11-23T16:31:39.015Z,7.40
2022-11-23T16:34:27.585Z,7.43
2022-11-23T16:36:55.892Z,9.43
2022-11-23T16:39:24.326Z,8.45
2022-11-23T16:41:52.424Z,10.57
2022-11-23T16:44:20.026Z,8.13
2022-11-23T16:46:48.902Z,8.43
2022-11-23T16:49:21.717Z,10.18
2022-11-23T16:51:56.285Z,9.95
2022-11-23T16:54:25.430Z,9.52
2022-11-23T16:56:53.045Z,9.30
2022-11-23T16:59:23.769Z,11.07
2022-11-23T17:01:58.016Z,10.00
2022-11-23T17:04:26.043Z,9.95
2022-11-23T17:06:52.978Z,11.55
2022-11-23T17:09:19.733Z,11.00
2022-11-23T17:11:50.008Z,10.50
2022-11-23T17:14:19.518Z,9.57
2022-11-23T17:16:53.281Z,9.55
2022-11-23T17:19:23.280Z,10.63
2022-11-23T17:21:50.078Z,9.75
2022-11-23T17:24:18.019Z,8.07
2022-11-23T17:26:47.148Z,8.27
2022-11-23T17:29:19.044Z,7.07
2022-11-23T17:31:51.087Z,8.88
2022-11-23T17:34:43.386Z,8.35
2022-11-23T17:37:26.058Z,8.30
2022-11-23T17:39:52.876Z,10.18
2022-11-23T17:42:20.605Z,11.67
2022-11-23T17:47:24.140Z,14.18
2022-11-23T17:49:51.136Z,9.52
2022-11-23T17:52:18.139Z,8.75
2022-11-23T17:54:53.037Z,9.75
2022-11-23T17:57:27.379Z,9.10
2022-11-23T17:59:55.121Z,9.85
2022-11-23T18:02:22.842Z,8.23
2022-11-23T18:04:51.723Z,9.77
2022-11-23T18:07:18.683Z,9.10
2022-11-23T18:09:52.266Z,8.23
2022-11-23T18:12:25.090Z,7.70
2022-11-23T18:14:53.284Z,9.57
2022-11-23T18:17:23.948Z,8.90
2022-11-23T18:19:51.801Z,9.90
2022-11-23T18:22:18.744Z,10.95
2022-11-23T18:24:50.809Z,11.02
2022-11-23T18:27:17.739Z,11.05
2022-11-23T18:29:45.488Z,10.73
2022-11-23T18:32:12.438Z,9.63
2022-11-23T18:34:39.298Z,9.25
2022-11-23T18:37:10.154Z,10.13
2022-11-23T18:39:42.364Z,13.20
2022-11-23T18:42:11.108Z,11.38
2022-11-23T18:44:37.999Z,11.65
2022-11-23T18:47:05.147Z,11.90
2022-11-23T18:49:32.405Z,13.63
2022-11-23T18:52:01.476Z,13.48
2022-11-23T18:54:32.366Z,15.13
2022-11-23T18:57:00.220Z,14.52
2022-11-23T18:59:50.374Z,14.82
2022-11-23T19:02:15.952Z,13.93
2022-11-23T19:04:44.294Z,14.88
2022-11-23T19:07:12.161Z,13.75
2022-11-23T19:09:38.991Z,12.90
2022-11-23T19:12:06.932Z,10.67
2022-11-23T19:14:34.149Z,12.90
2022-11-23T19:17:05.070Z,11.00
2022-11-23T19:19:32.270Z,14.40
2022-11-23T19:21:59.847Z,14.23
2022-11-23T19:24:28.637Z,18.80
2022-11-23T19:26:55.526Z,15.27
2022-11-23T19:29:24.893Z,14.63
2022-11-23T19:31:54.604Z,13.00
2022-11-23T19:34:22.018Z,14.27
2022-11-23T19:36:48.812Z,14.07
2022-11-23T19:39:18.214Z,13.63
2022-11-23T19:41:51.262Z,13.65
2022-11-23T19:44:18.144Z,12.93
2022-11-23T19:46:44.885Z,12.55
2022-11-23T19:49:12.407Z,12.30
2022-11-23T19:51:39.337Z,12.50
2022-11-23T19:54:06.934Z,11.07
2022-11-23T19:56:33.661Z,9.82
2022-11-23T19:59:01.140Z,11.10
2022-11-23T20:01:39.091Z,10.40
2022-11-23T20:04:09.176Z,10.80
2022-11-23T20:06:38.332Z,9.70
2022-11-23T20:09:12.369Z,8.52
2022-11-23T20:11:40.515Z,9.20
2022-11-23T20:14:09.972Z,11.68
2022-11-23T20:16:36.813Z,11.43
2022-11-23T20:19:05.989Z,9.75
2022-11-23T20:21:34.190Z,9.52
2022-11-23T20:24:05.404Z,10.05
2022-11-23T20:26:34.371Z,9.82
2022-11-23T20:29:01.269Z,9.90
2022-11-23T20:31:31.518Z,9.65
2022-11-23T20:33:59.536Z,9.65
2022-11-23T20:36:33.709Z,9.13
2022-11-23T20:39:06.079Z,10.30
2022-11-23T20:41:37.216Z,10.32
2022-11-23T20:44:14.663Z,10.65
2022-11-23T20:49:30.403Z,10.73
2022-11-23T20:52:00.313Z,10.35
2022-11-23T20:54:27.228Z,12.77
2022-11-23T20:57:00.656Z,12.88
2022-11-23T20:59:32.304Z,11.82
2022-11-23T21:02:00.268Z,12.20
2022-11-23T21:04:27.321Z,13.93
2022-11-23T21:06:56.484Z,12.63
2022-11-23T21:09:23.300Z,15.52
2022-11-23T21:12:11.546Z,14.63
2022-11-23T21:14:39.444Z,13.45
2022-11-23T21:17:06.706Z,13.48
2022-11-23T21:19:35.851Z,16.05
2022-11-23T21:22:05.619Z,18.75
2022-11-23T21:24:34.979Z,20.48
2022-11-23T21:27:05.383Z,19.40
2022-11-23T21:29:32.677Z,17.75
2022-11-23T21:32:01.520Z,17.27
2022-11-23T21:34:32.957Z,15.98
2022-11-23T21:37:01.911Z,17.70
2022-11-23T21:39:40.009Z,19.73
2022-11-23T21:42:07.807Z,19.10
2022-11-23T21:44:36.461Z,19.70
2022-11-23T21:47:03.405Z,19.27
2022-11-23T21:49:32.254Z,21.37
2022-11-23T21:51:59.061Z,20.50
2022-11-23T21:54:27.082Z,17.10
2022-11-23T21:56:54.347Z,17.35
2022-11-23T21:59:22.154Z,15.80
2022-11-23T22:01:49.105Z,12.98
2022-11-23T22:04:16.371Z,12.50
2022-11-23T22:06:46.258Z,12.13
2022-11-23T22:09:13.752Z,13.55
2022-11-23T22:11:43.456Z,11.13
2022-11-23T22:14:13.147Z,10.60
2022-11-23T22:16:45.182Z,11.00
2022-11-23T22:19:13.592Z,10.70
2022-11-23T22:21:44.347Z,8.82
2022-11-23T22:24:17.327Z,7.60
2022-11-23T22:26:50.026Z,8.63
2022-11-23T22:29:18.045Z,7.45
2022-11-23T22:31:45.294Z,7.20
2022-11-23T22:34:13.582Z,7.78
2022-11-23T22:36:40.744Z,6.65
2022-11-23T22:39:10.089Z,7.38
2022-11-23T22:41:38.955Z,8.02
2022-11-23T22:44:09.909Z,6.55
2022-11-23T22:46:38.387Z,7.50
2022-11-23T22:49:06.511Z,8.40
2022-11-23T22:51:33.575Z,8.25
2022-11-23T22:54:01.609Z,8.07
2022-11-23T22:56:29.595Z,7.63
2022-11-23T22:58:59.861Z,8.10
2022-11-23T23:01:29.399Z,9.93
2022-11-23T23:03:58.317Z,9.13
2022-11-23T23:06:28.478Z,7.53
2022-11-23T23:08:59.237Z,9.10
2022-11-23T23:11:30.600Z,9.20
2022-11-23T23:13:57.767Z,8.23
2022-11-23T23:16:25.862Z,8.07
2022-11-23T23:18:55.617Z,8.23
2022-11-23T23:21:22.775Z,8.95
2022-11-23T23:23:52.161Z,8.38
2022-11-23T23:26:22.305Z,7.97
2022-11-23T23:29:01.418Z,7.65
2022-11-23T23:31:30.213Z,7.47
2022-11-23T23:33:59.193Z,7.93
2022-11-23T23:36:27.113Z,7.32
2022-11-23T23:38:55.021Z,6.65
2022-11-23T23:41:23.927Z,6.60
2022-11-23T23:43:50.744Z,6.38
2022-11-23T23:46:18.057Z,5.90
2022-11-23T23:48:45.471Z,5.20
2022-11-23T23:51:16.895Z,5.60
2022-11-23T23:53:45.131Z,4.72
2022-11-23T23:56:19.670Z,5.28
2022-11-23T23:58:48.544Z,4.93
